Time;durP1;ratioP1;P1;durP2;ratioP2;P2;SDS_P1;SDS_P2;PMS_P1;PMS_P2;Temp;Humidity;BMP_temperature;BMP_pressure;BME280_temperature;BME280_humidity;BME280_pressure;Samples;Min_cycle;Max_cycle;Signal;HPM_P1;HPM_P2
2022/07/01 00:00:45;;;;;;;2.23;1.50;;;;;;;23.62;nan;99710.25;4198532;28;20227;-70
2022/07/01 00:02:47;;;;;;;1.30;1.20;;;;;;;23.21;nan;99721.22;4198710;28;20276;-70
2022/07/01 00:04:49;;;;;;;3.43;1.40;;;;;;;23.64;nan;99700.00;4194933;28;20254;-70
2022/07/01 00:06:51;;;;;;;2.13;1.63;;;;;;;22.69;nan;99729.41;4196786;28;20241;-70
2022/07/01 00:08:53;;;;;;;4.10;1.40;;;;;;;23.34;nan;99731.75;4194793;28;20240;-70
2022/07/01 00:10:54;;;;;;;1.00;1.00;;;;;;;22.48;nan;99733.59;4199947;28;20240;-70
2022/07/01 00:12:56;;;;;;;2.00;1.20;;;;;;;22.21;nan;99725.94;4208872;28;20292;-69
2022/07/01 00:14:58;;;;;;;1.47;0.90;;;;;;;21.57;nan;99748.19;4198810;28;20296;-70
2022/07/01 00:17:00;;;;;;;5.83;1.53;;;;;;;22.95;nan;99707.19;4202210;28;20292;-69
2022/07/01 00:19:03;;;;;;;2.27;0.90;;;;;;;22.63;nan;99717.63;4200585;28;20226;-70
2022/07/01 00:21:05;;;;;;;1.47;0.97;;;;;;;23.28;nan;99718.34;4207333;28;20223;-69
2022/07/01 00:23:09;;;;;;;1.10;1.10;;;;;;;23.55;nan;99711.25;4207337;28;20231;-70
2022/07/01 00:25:11;;;;;;;1.23;1.07;;;;;;;23.41;nan;99714.50;4202252;28;20240;-70
2022/07/01 00:27:13;;;;;;;1.80;1.10;;;;;;;22.88;nan;99732.75;4207622;28;20710;-70
2022/07/01 00:29:15;;;;;;;1.43;1.00;;;;;;;22.17;nan;99741.84;4191924;28;20234;-70
2022/07/01 00:31:17;;;;;;;1.10;1.00;;;;;;;23.12;nan;99733.53;4204124;28;20729;-71
2022/07/01 00:33:19;;;;;;;1.97;1.00;;;;;;;22.85;nan;99715.09;4200786;28;20222;-70
2022/07/01 00:35:20;;;;;;;1.87;0.93;;;;;;;22.46;nan;99721.09;4205553;28;20233;-70
2022/07/01 00:37:22;;;;;;;3.40;1.17;;;;;;;22.60;nan;99718.94;4202421;28;20242;-70
2022/07/01 00:39:24;;;;;;;2.90;1.10;;;;;;;23.06;nan;99726.34;4200267;28;20276;-70
2022/07/01 00:41:26;;;;;;;2.67;1.00;;;;;;;23.38;nan;99726.66;4204971;28;20567;-70
2022/07/01 00:43:35;;;;;;;2.00;1.23;;;;;;;22.88;nan;99747.16;4206323;28;20222;-70
2022/07/01 00:45:54;;;;;;;2.63;1.10;;;;;;;23.57;nan;99728.13;4193831;28;23549;-71
2022/07/01 00:47:56;;;;;;;1.07;1.03;;;;;;;23.53;nan;99726.09;4209115;28;20239;-69
2022/07/01 00:49:58;;;;;;;5.43;1.40;;;;;;;23.38;nan;99741.06;4205504;28;20230;-69
2022/07/01 00:52:00;;;;;;;2.57;1.10;;;;;;;23.34;nan;99744.50;4198532;28;20287;-69
2022/07/01 00:54:02;;;;;;;2.40;0.90;;;;;;;23.67;nan;99741.03;4197458;28;20866;-69
2022/07/01 00:56:05;;;;;;;1.20;1.10;;;;;;;24.02;nan;99729.06;4199083;28;20636;-70
2022/07/01 00:58:08;;;;;;;1.50;1.10;;;;;;;23.68;nan;99741.84;4201131;28;20616;-70
2022/07/01 01:00:13;;;;;;;1.60;1.20;;;;;;;23.75;nan;99735.22;4196080;28;20236;-69
2022/07/01 01:02:15;;;;;;;2.83;1.50;;;;;;;23.63;nan;99728.19;4203615;28;20236;-69
2022/07/01 01:04:17;;;;;;;1.50;1.03;;;;;;;23.97;nan;99730.91;4196444;28;20244;-70
2022/07/01 01:06:18;;;;;;;1.03;1.00;;;;;;;23.81;nan;99741.53;4205583;28;20222;-70
2022/07/01 01:08:20;;;;;;;2.93;1.10;;;;;;;24.01;nan;99751.03;4198997;28;20245;-70
2022/07/01 01:10:24;;;;;;;3.93;1.27;;;;;;;22.77;nan;99758.84;4199706;28;20234;-70
2022/07/01 01:12:26;;;;;;;1.30;1.20;;;;;;;23.17;nan;99742.56;4204672;28;20234;-70
2022/07/01 01:14:28;;;;;;;1.37;1.20;;;;;;;23.10;nan;99732.97;4194409;28;20626;-69
2022/07/01 01:16:30;;;;;;;5.07;1.30;;;;;;;23.75;nan;99724.34;4205423;28;20215;-70
2022/07/01 01:18:33;;;;;;;3.30;1.10;;;;;;;22.73;nan;99738.72;4201675;28;20230;-70
2022/07/01 01:20:36;;;;;;;2.37;1.30;;;;;;;22.79;nan;99721.47;4201186;28;20818;-69
2022/07/01 01:22:38;;;;;;;3.67;1.30;;;;;;;22.42;nan;99730.78;4209817;28;20232;-69
2022/07/01 01:24:41;;;;;;;2.53;1.37;;;;;;;21.83;nan;99743.44;4207926;28;20613;-69
2022/07/01 01:26:43;;;;;;;2.23;1.30;;;;;;;21.87;nan;99734.63;4204693;28;20234;-69
2022/07/01 01:28:45;;;;;;;4.57;1.43;;;;;;;21.29;nan;99754.22;4203617;28;20233;-69
2022/07/01 01:30:47;;;;;;;3.97;1.50;;;;;;;22.63;nan;99734.72;4190267;28;20647;-70
2022/07/01 01:32:49;;;;;;;4.23;1.13;;;;;;;22.64;nan;99741.78;4208039;28;20244;-69
2022/07/01 01:34:51;;;;;;;1.20;1.03;;;;;;;22.40;nan;99751.00;4207089;28;20230;-70
2022/07/01 01:36:53;;;;;;;2.50;1.40;;;;;;;22.12;nan;99766.09;4199401;28;20234;-69
2022/07/01 01:39:10;;;;;;;2.80;1.40;;;;;;;23.01;nan;99732.50;4199095;28;20249;-69
2022/07/01 01:41:12;;;;;;;1.43;1.33;;;;;;;21.79;nan;99755.81;4202890;28;20336;-70
2022/07/01 01:43:14;;;;;;;2.70;1.30;;;;;;;23.26;nan;99723.19;4199381;28;20249;-70
2022/07/01 01:45:16;;;;;;;1.40;1.30;;;;;;;23.36;nan;99721.47;4192089;28;20249;-69
2022/07/01 01:47:17;;;;;;;1.30;1.20;;;;;;;23.12;nan;99728.09;4198489;28;20269;-70
2022/07/01 01:49:19;;;;;;;4.97;1.30;;;;;;;23.11;nan;99731.88;4205512;28;20223;-69
2022/07/01 01:51:21;;;;;;;3.40;1.30;;;;;;;22.59;nan;99730.00;4198996;28;20222;-70
2022/07/01 01:53:24;;;;;;;4.27;1.53;;;;;;;23.05;nan;99716.56;4188840;28;20234;-69
2022/07/01 01:55:25;;;;;;;1.50;1.40;;;;;;;23.46;nan;99722.72;4205329;28;20257;-70
2022/07/01 01:57:27;;;;;;;3.27;1.53;;;;;;;23.41;nan;99722.66;4198294;28;20253;-70
2022/07/01 01:59:29;;;;;;;3.03;1.30;;;;;;;23.46;nan;99726.25;4197506;28;20589;-69
2022/07/01 02:01:31;;;;;;;3.03;1.30;;;;;;;23.37;nan;99717.72;4204210;28;20769;-70
2022/07/01 02:03:33;;;;;;;2.60;1.50;;;;;;;23.37;nan;99714.19;4203802;28;20264;-69
2022/07/01 02:05:36;;;;;;;2.03;1.40;;;;;;;23.12;nan;99718.06;4201310;28;20237;-69
2022/07/01 02:07:38;;;;;;;3.83;1.57;;;;;;;23.15;nan;99712.16;4204791;28;20765;-69
2022/07/01 02:09:40;;;;;;;2.33;1.30;;;;;;;23.40;nan;99716.41;4203346;28;20230;-69
2022/07/01 02:11:42;;;;;;;3.07;1.40;;;;;;;22.94;nan;99720.97;4196084;28;20227;-69
2022/07/01 02:13:47;;;;;;;3.40;1.47;;;;;;;23.44;nan;99709.41;4199470;28;20231;-69
2022/07/01 02:15:49;;;;;;;1.70;1.60;;;;;;;22.82;nan;99726.41;4193702;28;20241;-69
2022/07/01 02:17:53;;;;;;;1.83;1.60;;;;;;;23.16;nan;99721.94;4200294;28;20593;-70
2022/07/01 02:19:54;;;;;;;1.50;1.40;;;;;;;23.01;nan;99729.78;4191973;28;20234;-69
2022/07/01 02:21:56;;;;;;;3.50;1.50;;;;;;;23.00;nan;99725.44;4206919;28;20226;-70
2022/07/01 02:23:58;;;;;;;3.37;1.47;;;;;;;23.02;nan;99723.31;4199655;28;20261;-70
2022/07/01 02:26:00;;;;;;;1.57;1.30;;;;;;;23.22;nan;99722.06;4200295;28;20280;-71
2022/07/01 02:28:02;;;;;;;4.73;1.50;;;;;;;23.36;nan;99726.09;4205874;28;21273;-70
2022/07/01 02:30:05;;;;;;;5.33;1.50;;;;;;;23.44;nan;99711.31;4200495;28;20245;-70
2022/07/01 02:32:07;;;;;;;5.17;1.40;;;;;;;23.34;nan;99717.38;4200109;28;20823;-70
2022/07/01 02:34:09;;;;;;;3.07;1.47;;;;;;;22.91;nan;99729.56;4206293;28;20225;-70
2022/07/01 02:36:10;;;;;;;2.90;1.30;;;;;;;23.00;nan;99722.72;4198441;28;20218;-70
2022/07/01 02:38:12;;;;;;;2.03;1.10;;;;;;;22.63;nan;99723.88;4200922;28;20234;-70
2022/07/01 02:40:14;;;;;;;4.87;1.67;;;;;;;22.46;nan;99723.78;4204857;28;20591;-70
2022/07/01 02:42:34;;;;;;;3.43;1.20;;;;;;;23.04;nan;99699.47;4198700;28;20222;-70
2022/07/01 02:44:39;;;;;;;1.30;1.20;;;;;;;22.86;nan;99702.34;4195103;28;20505;-71
2022/07/01 02:46:41;;;;;;;3.63;1.50;;;;;;;22.72;nan;99710.75;4198346;28;20637;-70
2022/07/01 02:48:43;;;;;;;4.40;1.60;;;;;;;22.89;nan;99710.00;4201918;28;20226;-70
2022/07/01 02:50:45;;;;;;;1.60;1.23;;;;;;;22.35;nan;99721.91;4196199;28;20226;-71
2022/07/01 02:52:50;;;;;;;2.40;1.20;;;;;;;22.82;nan;99716.38;4204559;28;20222;-70
2022/07/01 02:54:51;;;;;;;2.87;1.60;;;;;;;22.28;nan;99740.16;4196408;28;20231;-70
2022/07/01 02:56:53;;;;;;;4.53;1.13;;;;;;;22.58;nan;99733.78;4190827;28;20570;-70
2022/07/01 02:58:55;;;;;;;3.90;1.30;;;;;;;22.74;nan;99738.47;4201907;28;20231;-70
2022/07/01 03:00:57;;;;;;;3.90;1.50;;;;;;;23.21;nan;99726.63;4196921;28;20840;-70
2022/07/01 03:02:58;;;;;;;4.10;1.47;;;;;;;23.11;nan;99718.31;4204304;28;20374;-70
2022/07/01 03:05:01;;;;;;;3.87;1.20;;;;;;;23.13;nan;99708.88;4198906;28;20238;-68
2022/07/01 03:07:04;;;;;;;2.03;1.23;;;;;;;22.62;nan;99722.25;4196364;28;20227;-70
2022/07/01 03:09:07;;;;;;;3.20;1.20;;;;;;;22.12;nan;99728.19;4190495;28;20229;-69
2022/07/01 03:11:08;;;;;;;3.73;1.27;;;;;;;22.52;nan;99713.06;4191210;28;20784;-70
2022/07/01 03:13:15;;;;;;;2.23;1.17;;;;;;;22.18;nan;99731.81;4198525;28;20233;-70
2022/07/01 03:15:17;;;;;;;2.03;1.07;;;;;;;22.17;nan;99727.44;4197149;28;20226;-70
2022/07/01 03:17:19;;;;;;;1.83;1.63;;;;;;;22.49;nan;99711.69;4195926;28;20222;-69
2022/07/01 03:19:21;;;;;;;1.00;1.00;;;;;;;22.55;nan;99709.88;4199447;28;20237;-69
2022/07/01 03:21:23;;;;;;;2.00;1.00;;;;;;;22.80;nan;99712.28;4195224;28;20605;-70
2022/07/01 03:23:24;;;;;;;3.20;1.27;;;;;;;21.89;nan;99754.16;4200644;28;20248;-70
2022/07/01 03:25:26;;;;;;;2.63;1.47;;;;;;;21.44;nan;99749.22;4193057;28;20238;-70
2022/07/01 03:27:29;;;;;;;1.37;1.27;;;;;;;21.57;nan;99753.63;4196239;28;20238;-69
2022/07/01 03:29:30;;;;;;;1.90;1.23;;;;;;;21.16;nan;99757.97;4193944;28;20616;-69
2022/07/01 03:31:32;;;;;;;3.03;1.43;;;;;;;21.47;nan;99743.34;4192370;28;20234;-69
2022/07/01 03:33:34;;;;;;;1.80;1.47;;;;;;;22.08;nan;99735.09;4192229;28;22160;-67
2022/07/01 03:35:36;;;;;;;1.97;1.37;;;;;;;21.64;nan;99743.53;4201057;28;20230;-70
2022/07/01 03:37:37;;;;;;;1.77;1.40;;;;;;;21.42;nan;99764.88;4198199;28;20246;-70
2022/07/01 03:39:40;;;;;;;2.07;1.30;;;;;;;21.21;nan;99763.50;4200574;28;20238;-70
2022/07/01 03:41:42;;;;;;;2.13;1.30;;;;;;;21.67;nan;99759.31;4188038;28;20234;-70
2022/07/01 03:43:44;;;;;;;3.83;1.23;;;;;;;21.94;nan;99753.47;4206141;28;20726;-70
2022/07/01 03:45:45;;;;;;;3.03;1.37;;;;;;;22.31;nan;99761.38;4199468;28;20323;-69
2022/07/01 03:47:49;;;;;;;1.73;1.60;;;;;;;22.30;nan;99750.78;4200700;28;20226;-70
2022/07/01 03:49:51;;;;;;;2.27;1.53;;;;;;;22.53;nan;99753.47;4201866;28;20238;-70
2022/07/01 03:51:53;;;;;;;6.03;1.67;;;;;;;22.48;nan;99756.06;4196271;28;20924;-71
2022/07/01 03:56:16;;;;;;;4.17;1.30;;;;;;;21.97;nan;99782.78;4204344;28;20230;-71
2022/07/01 03:58:17;;;;;;;4.63;1.53;;;;;;;21.78;nan;99783.91;4208807;28;20231;-70
2022/07/01 04:00:19;;;;;;;3.87;1.40;;;;;;;21.64;nan;99794.94;4206710;28;20774;-71
2022/07/01 04:02:21;;;;;;;3.53;1.30;;;;;;;21.95;nan;99803.84;4204677;28;20741;-70
2022/07/01 04:04:24;;;;;;;2.17;1.30;;;;;;;21.21;nan;99824.84;4202724;28;20229;-70
2022/07/01 04:06:26;;;;;;;1.93;1.50;;;;;;;21.84;nan;99804.66;4200680;28;20226;-71
2022/07/01 04:08:27;;;;;;;2.53;1.50;;;;;;;21.08;nan;99825.88;4206475;28;20280;-70
2022/07/01 04:10:33;;;;;;;1.50;1.40;;;;;;;21.39;nan;99795.06;4188712;28;20568;-70
2022/07/01 04:12:35;;;;;;;2.47;1.23;;;;;;;21.40;nan;99810.25;4188530;28;20230;-70
2022/07/01 04:14:37;;;;;;;2.40;1.30;;;;;;;20.87;nan;99814.44;4198419;28;20235;-70
2022/07/01 04:16:39;;;;;;;3.43;1.50;;;;;;;21.27;nan;99796.91;4196001;28;20749;-71
2022/07/01 04:18:42;;;;;;;4.63;1.43;;;;;;;22.20;nan;99798.22;4203158;28;20935;-69
2022/07/01 04:22:32;;;;;;;2.50;1.50;;;;;;;21.56;nan;99808.78;4192640;28;20238;-71
2022/07/01 04:23:05;;;;;;;2.00;1.73;;;;;;;21.31;nan;99803.53;4200319;28;20237;-70
2022/07/01 04:25:07;;;;;;;3.07;1.70;;;;;;;21.62;nan;99810.56;4204952;28;20261;-70
2022/07/01 04:27:09;;;;;;;2.80;1.67;;;;;;;21.39;nan;99803.19;4202257;28;20623;-71
2022/07/01 04:29:11;;;;;;;4.67;1.80;;;;;;;21.07;nan;99808.81;4200880;28;20234;-70
2022/07/01 04:31:13;;;;;;;4.77;1.83;;;;;;;21.02;nan;99789.72;4198874;28;20234;-70
2022/07/01 04:33:15;;;;;;;3.43;2.30;;;;;;;21.03;nan;99790.59;4199753;28;20230;-70
2022/07/01 04:35:17;;;;;;;2.93;1.93;;;;;;;21.26;nan;99790.69;4205238;28;20238;-71
2022/07/01 04:37:19;;;;;;;5.90;2.20;;;;;;;21.54;nan;99787.38;4207516;28;20646;-71
2022/07/01 04:39:21;;;;;;;2.90;2.50;;;;;;;20.69;nan;99784.72;4203697;28;20232;-70
2022/07/01 04:43:43;;;;;;;4.30;2.20;;;;;;;20.97;nan;99803.94;4199170;28;22065;-71
2022/07/01 04:45:45;;;;;;;4.30;2.40;;;;;;;21.83;nan;99776.78;4198186;28;20299;-70
2022/07/01 04:47:47;;;;;;;3.37;2.50;;;;;;;21.96;nan;99780.31;4204636;28;20227;-70
2022/07/01 04:49:49;;;;;;;3.83;2.00;;;;;;;20.33;nan;99802.53;4205779;28;20227;-71
2022/07/01 04:51:51;;;;;;;2.10;1.90;;;;;;;20.98;nan;99802.88;4205954;28;20231;-71
2022/07/01 04:53:53;;;;;;;2.70;2.10;;;;;;;20.76;nan;99820.59;4203370;28;20229;-71
2022/07/01 04:55:54;;;;;;;3.67;1.80;;;;;;;21.51;nan;99795.09;4202323;28;20287;-70
2022/07/01 04:57:56;;;;;;;1.80;1.70;;;;;;;21.55;nan;99785.50;4201807;28;20222;-71
2022/07/01 04:59:58;;;;;;;3.47;1.67;;;;;;;20.89;nan;99796.13;4196822;28;20242;-70
2022/07/01 05:02:00;;;;;;;2.50;1.97;;;;;;;21.75;nan;99776.25;4208516;28;20227;-70
2022/07/01 05:04:02;;;;;;;2.87;2.20;;;;;;;21.53;nan;99771.38;4203360;28;20227;-70
2022/07/01 05:06:04;;;;;;;2.50;1.83;;;;;;;21.65;nan;99784.97;4206754;28;20234;-70
2022/07/01 05:08:06;;;;;;;2.33;1.90;;;;;;;21.95;nan;99790.31;4206804;28;20227;-70
2022/07/01 05:10:08;;;;;;;2.17;1.80;;;;;;;22.07;nan;99791.16;4206759;28;20914;-71
2022/07/01 05:12:10;;;;;;;3.83;2.00;;;;;;;22.18;nan;99784.06;4203283;28;20226;-69
2022/07/01 05:14:12;;;;;;;2.60;1.97;;;;;;;21.84;nan;99801.94;4203433;28;20227;-70
2022/07/01 05:16:14;;;;;;;3.87;2.30;;;;;;;21.77;nan;99812.06;4195977;28;20230;-71
2022/07/01 05:23:10;;;;;;;3.80;2.80;;;;;;;20.88;nan;99837.69;4200963;28;20226;-70
2022/07/01 05:25:12;;;;;;;3.37;2.80;;;;;;;21.85;nan;99811.69;4204332;28;20230;-70
2022/07/01 05:27:14;;;;;;;2.80;2.40;;;;;;;22.28;nan;99818.72;4201936;28;20241;-70
2022/07/01 05:29:15;;;;;;;3.30;3.00;;;;;;;21.89;nan;99829.97;4202560;28;20231;-69
2022/07/01 05:31:18;;;;;;;5.60;3.17;;;;;;;22.23;nan;99827.53;4197934;28;20219;-70
2022/07/01 05:33:21;;;;;;;5.23;3.40;;;;;;;21.88;nan;99832.88;4198952;28;20229;-70
2022/07/01 05:35:22;;;;;;;3.50;2.97;;;;;;;21.71;nan;99825.47;4204792;28;20945;-71
2022/07/01 05:37:24;;;;;;;4.70;3.20;;;;;;;21.65;nan;99829.06;4205156;28;20222;-71
2022/07/01 05:39:26;;;;;;;3.60;3.20;;;;;;;21.92;nan;99812.44;4203359;28;20967;-71
2022/07/01 05:41:28;;;;;;;4.00;3.60;;;;;;;21.67;nan;99816.13;4199218;28;20811;-70
2022/07/01 05:43:31;;;;;;;4.17;3.50;;;;;;;20.92;nan;99833.50;4204257;28;20938;-69
2022/07/01 05:45:32;;;;;;;6.30;3.80;;;;;;;21.15;nan;99837.41;4191087;28;20237;-71
2022/07/01 05:47:37;;;;;;;6.27;3.83;;;;;;;21.84;nan;99824.41;4186755;28;20316;-70
2022/07/01 05:49:38;;;;;;;5.20;3.80;;;;;;;21.76;nan;99840.97;4199946;28;20378;-71
2022/07/01 05:51:41;;;;;;;4.97;3.87;;;;;;;21.25;nan;99845.00;4199236;28;20231;-69
2022/07/01 05:53:43;;;;;;;5.37;3.50;;;;;;;20.07;nan;99861.06;4189213;28;20320;-69
2022/07/01 05:55:45;;;;;;;9.10;3.47;;;;;;;20.57;nan;99860.28;4198689;28;20691;-70
2022/07/01 05:57:47;;;;;;;5.63;3.30;;;;;;;20.74;nan;99861.34;4203651;28;20235;-70
2022/07/01 05:59:49;;;;;;;3.67;3.17;;;;;;;21.42;nan;99837.88;4196826;28;20655;-70
2022/07/01 06:01:51;;;;;;;6.17;3.57;;;;;;;22.08;nan;99821.75;4203925;28;20615;-70
2022/07/01 06:03:52;;;;;;;6.90;3.13;;;;;;;22.01;nan;99829.16;4199133;28;20234;-70
2022/07/01 06:05:54;;;;;;;6.03;3.50;;;;;;;21.44;nan;99835.78;4198827;28;20230;-70
2022/07/01 06:07:56;;;;;;;5.90;3.53;;;;;;;22.07;nan;99828.25;4199437;28;20231;-74
2022/07/01 06:09:58;;;;;;;4.93;2.73;;;;;;;22.21;nan;99824.22;4206912;28;20230;-72
2022/07/01 06:12:00;;;;;;;7.93;3.57;;;;;;;22.60;nan;99821.09;4207625;28;20226;-72
2022/07/01 06:14:01;;;;;;;5.30;3.70;;;;;;;21.97;nan;99842.34;4201328;28;20234;-73
2022/07/01 06:16:04;;;;;;;5.37;3.37;;;;;;;21.92;nan;99855.75;4205088;28;20218;-72
2022/07/01 06:18:05;;;;;;;5.30;3.00;;;;;;;21.82;nan;99855.50;4208064;28;20222;-71
2022/07/01 06:20:08;;;;;;;6.57;3.47;;;;;;;21.59;nan;99865.13;4203024;28;20703;-69
2022/07/01 06:22:10;;;;;;;5.23;3.13;;;;;;;21.85;nan;99868.53;4204422;28;20226;-73
2022/07/01 06:24:12;;;;;;;5.80;2.93;;;;;;;21.39;nan;99869.97;4206877;28;20279;-73
2022/07/01 06:26:14;;;;;;;4.70;3.20;;;;;;;21.92;nan;99864.69;4203961;28;20219;-71
2022/07/01 06:28:16;;;;;;;8.73;3.70;;;;;;;22.09;nan;99867.53;4207110;28;20719;-74
2022/07/01 06:30:18;;;;;;;5.00;3.10;;;;;;;21.91;nan;99864.91;4208146;28;20226;-72
2022/07/01 06:32:20;;;;;;;4.67;2.90;;;;;;;21.25;nan;99896.38;4207893;28;20237;-74
2022/07/01 06:34:22;;;;;;;2.87;2.60;;;;;;;21.55;nan;99880.19;4207349;28;20229;-74
2022/07/01 06:36:23;;;;;;;3.17;2.87;;;;;;;21.35;nan;99889.38;4207402;28;20225;-72
2022/07/01 06:38:26;;;;;;;5.17;3.00;;;;;;;21.77;nan;99869.72;4207860;28;20218;-72
2022/07/01 06:40:27;;;;;;;5.53;3.27;;;;;;;21.39;nan;99883.50;4207163;28;20264;-72
2022/07/01 06:42:29;;;;;;;4.03;3.10;;;;;;;21.31;nan;99893.59;4207542;28;20222;-71
2022/07/01 06:44:31;;;;;;;3.13;2.77;;;;;;;21.41;nan;99898.47;4206391;28;20226;-72
2022/07/01 06:46:33;;;;;;;3.90;2.90;;;;;;;21.94;nan;99882.59;4207046;28;20218;-71
2022/07/01 06:48:35;;;;;;;5.00;3.20;;;;;;;21.49;nan;99914.38;4207648;28;20225;-72
2022/07/01 06:50:37;;;;;;;5.70;3.30;;;;;;;21.27;nan;99907.78;4201418;28;20219;-70
2022/07/01 06:52:39;;;;;;;2.87;2.50;;;;;;;21.24;nan;99908.22;4203403;28;20290;-70
2022/07/01 06:54:41;;;;;;;4.03;3.07;;;;;;;21.25;nan;99908.00;4204279;28;20791;-71
2022/07/01 06:56:42;;;;;;;5.13;2.93;;;;;;;21.67;nan;99897.31;4203666;28;20237;-70
2022/07/01 06:58:44;;;;;;;5.17;2.73;;;;;;;21.51;nan;99911.44;4204191;28;20229;-70
2022/07/01 07:00:46;;;;;;;3.03;2.67;;;;;;;21.89;nan;99896.81;4202176;28;20230;-71
2022/07/01 07:02:48;;;;;;;3.50;2.70;;;;;;;22.48;nan;99878.00;4200408;28;20292;-71
2022/07/01 07:04:49;;;;;;;3.57;3.03;;;;;;;22.43;nan;99892.22;4198365;28;20785;-70
2022/07/01 07:07:01;;;;;;;4.30;2.87;;;;;;;22.01;nan;99896.84;4203523;28;21712;-70
2022/07/01 07:09:06;;;;;;;3.77;2.63;;;;;;;22.19;nan;99885.94;4205883;28;20231;-70
2022/07/01 07:11:08;;;;;;;4.13;2.50;;;;;;;21.50;nan;99907.09;4207233;28;20242;-70
2022/07/01 07:13:10;;;;;;;4.30;2.60;;;;;;;22.31;nan;99899.53;4201299;28;20316;-70
2022/07/01 07:15:12;;;;;;;5.00;2.80;;;;;;;22.27;nan;99901.00;4201867;28;20231;-70
2022/07/01 07:17:14;;;;;;;2.80;2.60;;;;;;;22.33;nan;99889.28;4207781;28;20226;-70
2022/07/01 07:19:16;;;;;;;3.43;2.43;;;;;;;22.61;nan;99883.19;4209749;28;20252;-70
2022/07/01 07:21:17;;;;;;;3.17;2.40;;;;;;;22.40;nan;99895.41;4203881;28;20930;-71
2022/07/01 07:23:19;;;;;;;6.40;2.57;;;;;;;22.35;nan;99903.41;4210846;28;20306;-70
2022/07/01 07:25:21;;;;;;;4.03;2.70;;;;;;;22.69;nan;99886.59;4209554;28;20261;-70
2022/07/01 07:27:23;;;;;;;2.43;2.23;;;;;;;22.50;nan;99897.53;4209501;28;20734;-71
2022/07/01 07:29:24;;;;;;;3.03;2.13;;;;;;;22.45;nan;99887.41;4204367;28;20234;-72
2022/07/01 07:31:26;;;;;;;3.37;2.20;;;;;;;22.22;nan;99877.34;4208992;28;20230;-71
2022/07/01 07:33:28;;;;;;;2.33;2.13;;;;;;;21.91;nan;99865.72;4211084;28;20655;-73
2022/07/01 07:35:30;;;;;;;2.30;2.10;;;;;;;22.56;nan;99855.97;4206833;28;20230;-72
2022/07/01 07:37:32;;;;;;;5.57;2.53;;;;;;;21.59;nan;99902.19;4209822;28;20222;-71
2022/07/01 07:39:34;;;;;;;2.97;2.57;;;;;;;22.41;nan;99896.25;4210123;28;20223;-73
2022/07/01 07:41:35;;;;;;;2.73;2.50;;;;;;;22.69;nan;99902.84;4208515;28;21721;-71
2022/07/01 07:43:37;;;;;;;2.73;2.53;;;;;;;22.63;nan;99907.34;4209205;28;20852;-72
2022/07/01 07:45:39;;;;;;;3.93;2.13;;;;;;;22.67;nan;99902.25;4207947;28;20273;-71
2022/07/01 07:47:43;;;;;;;2.20;2.00;;;;;;;21.85;nan;99941.63;4201467;28;20227;-71
2022/07/01 07:49:45;;;;;;;3.03;2.50;;;;;;;21.31;nan;99906.28;4209965;28;20604;-71
2022/07/01 07:51:47;;;;;;;2.97;2.40;;;;;;;21.31;nan;99925.22;4203096;28;20222;-73
2022/07/01 07:53:49;;;;;;;3.20;2.23;;;;;;;22.13;nan;99905.00;4210852;28;20234;-72
2022/07/01 07:55:51;;;;;;;2.50;2.30;;;;;;;22.13;nan;99910.41;4210937;28;20231;-72
2022/07/01 07:57:52;;;;;;;2.70;2.20;;;;;;;21.98;nan;99918.97;4211261;28;20867;-71
2022/07/01 07:59:55;;;;;;;2.27;2.07;;;;;;;22.55;nan;99905.78;4210641;28;20230;-72
2022/07/01 08:01:57;;;;;;;2.90;2.00;;;;;;;21.59;nan;99940.88;4209303;28;20260;-73
2022/07/01 08:03:59;;;;;;;3.90;2.60;;;;;;;22.53;nan;99910.63;4209739;28;20232;-73
2022/07/01 08:06:01;;;;;;;3.87;2.60;;;;;;;22.16;nan;99918.06;4209930;28;20756;-73
2022/07/01 08:08:04;;;;;;;3.50;2.40;;;;;;;21.48;nan;99949.78;4206010;28;20665;-71
2022/07/01 08:10:07;;;;;;;3.60;2.33;;;;;;;21.84;nan;99938.09;4211381;28;20607;-72
2022/07/01 08:12:09;;;;;;;4.73;2.70;;;;;;;21.07;nan;99968.28;4211492;28;20227;-72
2022/07/01 08:14:12;;;;;;;4.30;3.53;;;;;;;22.48;nan;99932.19;4210906;28;20223;-70
2022/07/01 08:16:14;;;;;;;6.23;3.70;;;;;;;22.80;nan;99934.56;4209631;28;20599;-71
2022/07/01 08:18:16;;;;;;;3.77;2.80;;;;;;;22.53;nan;99950.44;4209849;28;20273;-72
2022/07/01 08:20:18;;;;;;;3.57;2.30;;;;;;;21.70;nan;99961.81;4208151;28;20329;-73
2022/07/01 08:22:23;;;;;;;2.10;2.00;;;;;;;20.99;nan;99991.06;4207087;28;20600;-71
2022/07/01 08:24:25;;;;;;;2.73;2.53;;;;;;;22.06;nan;99946.53;4210122;28;20218;-72
2022/07/01 08:26:27;;;;;;;3.07;1.87;;;;;;;22.42;nan;99943.94;4209251;28;20580;-71
2022/07/01 08:28:29;;;;;;;2.50;2.30;;;;;;;22.52;nan;99957.75;4210360;28;22137;-68
2022/07/01 08:30:31;;;;;;;2.10;1.90;;;;;;;22.15;nan;99984.94;4210088;28;20230;-71
2022/07/01 08:32:33;;;;;;;2.73;2.53;;;;;;;22.36;nan;99972.78;4210259;28;20222;-72
2022/07/01 08:34:35;;;;;;;2.43;1.90;;;;;;;22.28;nan;99967.69;4209842;28;20226;-73
2022/07/01 08:36:37;;;;;;;2.13;1.93;;;;;;;21.84;nan;99989.53;4209844;28;20628;-72
2022/07/01 08:38:41;;;;;;;4.33;2.17;;;;;;;22.01;nan;99991.59;4209771;28;20227;-71
2022/07/01 08:40:42;;;;;;;2.00;1.90;;;;;;;21.45;nan;100013.25;4211413;28;20775;-72
2022/07/01 08:42:44;;;;;;;3.67;1.97;;;;;;;21.59;nan;100002.28;4210740;28;20223;-71
2022/07/01 08:44:46;;;;;;;2.43;2.07;;;;;;;22.81;nan;99975.00;4208416;28;20784;-71
2022/07/01 08:46:48;;;;;;;2.40;2.20;;;;;;;22.22;nan;99999.22;4210769;28;20233;-73
2022/07/01 08:48:49;;;;;;;2.53;1.80;;;;;;;22.40;nan;99989.41;4209886;28;20234;-71
2022/07/01 08:50:51;;;;;;;2.37;2.17;;;;;;;21.80;nan;100003.72;4203613;28;20718;-72
2022/07/01 08:52:53;;;;;;;4.03;1.80;;;;;;;22.50;nan;99978.00;4210034;28;20260;-72
2022/07/01 08:54:55;;;;;;;2.13;1.93;;;;;;;22.99;nan;99959.69;4209035;28;20610;-72
2022/07/01 08:56:57;;;;;;;1.90;1.70;;;;;;;23.01;nan;99977.38;4210096;28;20231;-72
2022/07/01 08:58:59;;;;;;;2.50;1.77;;;;;;;22.74;nan;99984.28;4210166;28;20226;-72
2022/07/01 09:01:17;;;;;;;1.80;1.70;;;;;;;20.89;nan;100028.53;4210080;28;20245;-72
2022/07/01 09:03:23;;;;;;;3.70;1.83;;;;;;;22.25;nan;99979.81;4209674;28;20218;-71
2022/07/01 09:05:27;;;;;;;2.30;2.00;;;;;;;22.69;nan;99965.19;4208397;28;20234;-71
2022/07/01 09:07:34;;;;;;;4.03;1.90;;;;;;;22.81;nan;99957.88;4209528;28;20706;-71
2022/07/01 09:09:42;;;;;;;2.43;1.80;;;;;;;20.61;nan;100016.25;4201367;28;20239;-72
2022/07/01 09:11:45;;;;;;;2.57;1.70;;;;;;;20.15;nan;100001.16;4209117;28;20379;-72
2022/07/01 09:14:09;;;;;;;3.90;1.70;;;;;;;21.32;nan;99992.59;4209292;28;20230;-72
2022/07/01 09:16:16;;;;;;;2.93;1.70;;;;;;;22.16;nan;99967.63;4209370;28;20230;-71
2022/07/01 09:18:18;;;;;;;2.03;1.60;;;;;;;21.96;nan;99978.75;4211313;28;20219;-73
2022/07/01 09:20:29;;;;;;;2.27;1.70;;;;;;;22.27;nan;99971.44;4206522;28;20245;-73
2022/07/01 09:22:34;;;;;;;2.27;1.70;;;;;;;22.26;nan;99980.63;4196760;28;20634;-72
2022/07/01 09:24:39;;;;;;;2.97;1.73;;;;;;;22.45;nan;99970.56;4208079;28;20227;-73
2022/07/01 09:27:00;;;;;;;3.10;1.80;;;;;;;22.48;nan;99980.94;4200567;28;20239;-71
2022/07/01 09:29:03;;;;;;;1.60;1.50;;;;;;;22.06;nan;99995.25;4209981;28;20233;-72
2022/07/01 09:31:05;;;;;;;1.87;1.50;;;;;;;22.28;nan;99997.47;4209708;28;20226;-72
2022/07/01 09:33:21;;;;;;;3.20;1.97;;;;;;;22.94;nan;99968.53;4210651;28;20595;-72
2022/07/01 09:35:23;;;;;;;2.03;1.83;;;;;;;22.90;nan;99969.22;4208109;28;20378;-73
2022/07/01 09:37:25;;;;;;;2.50;1.93;;;;;;;22.95;nan;99974.78;4209094;28;20218;-71
2022/07/01 09:39:27;;;;;;;2.00;1.90;;;;;;;23.50;nan;99966.25;4209718;28;20215;-72
2022/07/01 09:41:38;;;;;;;2.90;2.30;;;;;;;22.90;nan;99988.19;4207960;28;20241;-72
2022/07/01 09:43:40;;;;;;;4.07;2.03;;;;;;;23.78;nan;99951.06;4208686;28;20219;-72
2022/07/01 09:46:08;;;;;;;2.83;2.17;;;;;;;23.51;nan;99977.91;4207103;28;20234;-72
2022/07/01 09:48:10;;;;;;;3.13;2.10;;;;;;;23.64;nan;99968.72;4208616;28;20237;-74
2022/07/01 09:50:12;;;;;;;2.83;1.90;;;;;;;23.48;nan;99984.63;4206758;28;20749;-71
2022/07/01 09:52:14;;;;;;;2.50;1.93;;;;;;;22.73;nan;99998.91;4205957;28;20222;-70
2022/07/01 09:54:15;;;;;;;3.90;1.90;;;;;;;22.95;nan;99991.06;4208020;28;20223;-71
2022/07/01 09:56:19;;;;;;;2.27;1.80;;;;;;;23.00;nan;99975.72;4208256;28;20249;-71
2022/07/01 09:58:21;;;;;;;3.30;2.20;;;;;;;23.53;nan;99981.19;4209363;28;20617;-73
2022/07/01 10:00:22;;;;;;;2.30;1.90;;;;;;;22.91;nan;100009.66;4209618;28;20226;-75
2022/07/01 10:02:29;;;;;;;1.87;1.50;;;;;;;23.18;nan;100001.91;4208444;28;20227;-74